Terminal Aerodrome Forecast
Issued by NWS Twin Cities, MN

Home | Current Version | Previous Version | Graphics & Text | Print | Product List | Glossary On
Versions: 1 2 3 4 5 6 7 8 9 10 11 12 13 14 15 16 17 18 19 20 21 22 23 24 25
747
FTUS43 KMPX 231720
TAFMSP
TAF
KMSP 231720Z 2318/2424 22005KT P6SM SKC
     FM240200 VRB03KT P6SM FEW150 BKN250
     FM240700 35007KT P6SM OVC070
     FM241500 02012G20KT P6SM OVC050=

USA.gov is the U.S. government's official web portal to all federal, state and local government web resources and services.